< Cyclone 198801 1988 Season Cyclone 198803 >
Cyclone 198802 (FREDERIC)
General InformationTrack Information on Google MapsDetailed Wind InformationList of All Images || ResourceGoogle EarthGE AnimationAtom FeedGeoJSON
Detalied Best Track (Time Zone = UTC)
Year Month Day Hour Lat. Long. Pressure (hPa) Wind (kt) Class Image Chart
1988 1 28 00 -6.8 99.5 1003 25 2 Image --
1988 1 28 06 -6.7 98.8 1003 25 2 Image --
1988 1 28 12 -6.8 98.3 1002 25 2 Image --
1988 1 28 18 -7.1 98.6 1001 25 2 Image --
1988 1 29 00 -7.5 99.0 1001 25 2 Image --
1988 1 29 06 -8.1 98.6 1000 25 2 Image --
1988 1 29 12 -8.7 98.4 999 30 2 Image --
1988 1 29 18 -9.2 98.1 998 35 3 Image --
1988 1 30 00 -9.9 97.7 996 35 3 Image --
1988 1 30 06 -10.5 97.2 994 40 3 Image --
1988 1 30 09 -11.0 97.1 993 40 3 Image --
1988 1 30 12 -11.5 97.1 992 40 3 Image --
1988 1 30 15 -12.0 97.1 990 50 4 Image --
1988 1 30 18 -12.5 96.8 988 55 4 Image --
1988 1 30 21 -13.1 96.7 985 60 4 Image --
1988 1 31 00 -13.6 96.5 981 70 5 Image --
1988 1 31 06 -15.0 96.2 973 80 5 Image --
1988 1 31 12 -16.1 96.0 961 85 5 Image --
1988 1 31 18 -17.3 95.6 955 80 5 Image --
1988 2 1 00 -18.1 95.5 966 65 5 Image --
1988 2 1 06 -18.7 95.4 978 55 4 Image --
1988 2 1 12 -18.7 95.2 986 45 3 Image --
1988 2 1 18 -18.6 95.1 992 35 3 Image --
1988 2 2 00 -18.5 95.0 1000 30 2 Image --
< Cyclone 198801 1988 Season Cyclone 198803 >

Help